User Preferences

Timezone
Units
Lat/Lon format
Defaults

Geo and time bounds

254 - POINT SANTA CRUZ, CA   Status:DECOMMISSIONED   Notice:09/11/2023 Station decommissioned
96 records
Date
(PDT)
Hs
(ft)
Tp
(s)
Dp
(deg)
Ta
(s)
SST
(F)
Current sp
(kt)
Current dir
(deg)
2023-09-02 16:30 3.31 16.67 191 10.07 62.2 0.27 115.0
2023-09-02 16:00 3.15 16.67 188 9.80 62.4 0.25 121.0
2023-09-02 15:30 3.25 16.67 185 9.90 62.1 0.23 106.0
2023-09-02 15:00 3.25 16.67 182 9.13 61.9 0.27 100.0
2023-09-02 14:30 3.51 16.67 185 10.28 62.1 0.21 100.0
2023-09-02 14:00 3.25 16.67 184 9.40 63.1 0.19 2.0
2023-09-02 13:30 3.22 16.67 191 8.95 63.7 0.19 353.0
2023-09-02 13:00 3.05 16.67 182 8.41 63.7 0.10 20.0
2023-09-02 12:30 3.58 16.67 180 10.12 63.5 0.16 234.0
2023-09-02 12:00 3.18 16.67 177 9.23 63.3 0.19 317.0
2023-09-02 11:30 3.61 16.67 181 9.74 62.8 0.10 263.0
2023-09-02 11:00 3.38 16.67 181 8.92 62.8 0.12 255.0
2023-09-02 10:30 3.38 16.67 176 9.01 63.0 0.19 239.0
2023-09-02 10:00 3.51 16.67 191 9.39 62.8 0.21 241.0
2023-09-02 09:30 3.35 16.67 183 8.75 62.4 0.25 245.0
2023-09-02 09:00 3.28 16.67 190 9.00 62.2 0.23 228.0
2023-09-02 08:30 3.44 16.67 188 9.89 61.9 0.21 205.0
2023-09-02 08:00 2.99 18.18 190 8.84 61.9 0.19 189.0
2023-09-02 07:30 3.22 16.67 187 9.30 61.3 0.10 163.0
2023-09-02 07:00 3.38 16.67 187 9.67 60.8 0.14 159.0
2023-09-02 06:30 3.15 16.67 187 9.40 60.8 0.16 119.0
2023-09-02 06:00 2.92 18.18 187 8.83 61.3 0.17 50.0
2023-09-02 05:30 3.08 18.18 185 9.40 62.1 0.23 1.0
2023-09-02 05:00 2.85 18.18 182 8.36 62.2 0.21 5.0
2023-09-02 04:30 3.02 16.67 184 8.53 62.4 0.14 335.0
2023-09-02 04:00 2.99 18.18 188 8.51 62.8 0.21 5.0
2023-09-02 03:30 2.99 18.18 187 8.13 63.0 0.12 314.0
2023-09-02 03:00 3.18 18.18 181 8.45 63.1 0.21 274.0
2023-09-02 02:30 3.02 18.18 186 7.97 63.1 0.25 293.0
2023-09-02 02:00 3.12 18.18 179 8.22 62.8 0.31 288.0
2023-09-02 01:30 3.08 18.18 188 7.56 62.8 0.25 255.0
2023-09-02 01:00 2.99 18.18 181 7.06 63.1 0.29 247.0
2023-09-02 00:30 2.99 18.18 184 7.00 63.0 0.29 237.0
2023-09-02 00:00 3.15 18.18 180 6.98 63.7 0.27 217.0
2023-09-01 23:30 3.41 8.70 250 7.01 63.0 0.25 206.0
2023-09-01 23:00 3.35 18.18 190 7.23 63.3 0.23 207.0
2023-09-01 22:30 3.08 18.18 186 6.89 63.7 0.25 182.0
2023-09-01 22:00 3.05 18.18 187 6.80 62.6 0.35 176.0
2023-09-01 21:30 2.99 18.18 190 6.62 62.4 0.23 178.0
2023-09-01 21:00 2.85 18.18 192 6.26 62.2 0.25 156.0
2023-09-01 20:30 2.89 18.18 185 6.14 62.2 0.29 142.0
2023-09-01 20:00 2.95 18.18 194 5.73 62.8 0.29 149.0
2023-09-01 19:30 3.15 18.18 193 5.71 63.1 0.29 140.0
2023-09-01 19:00 3.15 18.18 193 5.71 63.5 0.31 137.0
2023-09-01 18:30 2.82 18.18 190 5.38 63.7 0.23 142.0
2023-09-01 18:00 2.92 18.18 188 6.22 64.0 0.23 155.0
2023-09-01 17:30 2.82 18.18 185 5.51 64.8 0.23 148.0
2023-09-01 17:00 2.82 18.18 196 6.00 65.1 0.31 131.0
2023-09-01 16:30 2.66 18.18 192 6.03 65.3 0.37 125.0
2023-09-01 16:00 2.59 18.18 194 5.96 65.1 0.27 114.0
2023-09-01 15:30 2.72 18.18 190 6.98 64.9 0.31 98.0
2023-09-01 15:00 2.85 18.18 196 6.94 65.1 0.23 93.0
2023-09-01 14:30 2.79 18.18 191 6.63 65.3 0.23 81.0
2023-09-01 14:00 2.62 20.00 185 6.18 65.7 0.19 52.0
2023-09-01 13:30 2.59 20.00 179 6.26 65.7 0.21 170.0
2023-09-01 13:00 2.85 20.00 192 6.13 65.5 0.14 149.0
2023-09-01 12:30 2.59 20.00 187 5.94 65.3 0.08 235.0
2023-09-01 12:00 2.76 20.00 183 6.57 64.9 0.17 271.0
2023-09-01 11:30 2.59 20.00 168 6.06 64.8 0.14 286.0
2023-09-01 11:00 2.79 20.00 181 6.28 65.5 0.14 310.0
2023-09-01 10:30 2.82 20.00 189 6.17 65.5 0.19 294.0
2023-09-01 10:00 2.69 20.00 180 6.14 65.5 0.10 249.0
2023-09-01 09:30 2.82 20.00 187 6.19 65.5 0.17 260.0
2023-09-01 09:00 2.89 20.00 190 6.16 65.7 0.23 302.0
2023-09-01 08:30 2.89 20.00 197 6.38 65.7 0.17 266.0
2023-09-01 08:00 2.82 20.00 183 5.86 65.7 0.19 277.0
2023-09-01 07:30 2.69 8.00 251 5.87 65.8 0.17 267.0
2023-09-01 07:00 2.72 20.00 189 5.96 65.8 0.19 278.0
2023-09-01 06:30 2.69 20.00 190 5.88 65.8 0.25 268.0
2023-09-01 06:00 2.82 8.00 249 5.87 65.3 0.19 249.0
2023-09-01 05:30 2.79 7.69 253 6.06 65.1 0.19 267.0
2023-09-01 05:00 2.76 8.33 248 6.16 64.9 0.25 240.0
2023-09-01 04:30 2.79 8.33 246 6.21 64.8 0.16 245.0
2023-09-01 04:00 2.72 8.00 256 5.98 64.8 0.23 257.0
2023-09-01 03:30 2.76 20.00 189 6.13 64.8 0.27 273.0
2023-09-01 03:00 2.72 7.69 262 5.93 64.9 0.31 237.0
2023-09-01 02:30 2.82 8.00 259 5.99 64.8 0.29 253.0
2023-09-01 02:00 3.05 8.33 256 6.11 65.1 0.33 258.0
2023-09-01 01:30 2.89 7.69 267 6.05 65.5 0.33 249.0
2023-09-01 01:00 3.02 20.00 203 6.15 65.3 0.21 263.0
2023-09-01 00:30 3.18 8.33 264 6.25 65.5 0.39 245.0
2023-09-01 00:00 3.25 7.14 268 5.94 65.3 0.33 235.0
2023-08-31 23:30 3.44 8.70 252 6.21 65.3 0.35 245.0
2023-08-31 23:00 3.38 8.33 257 6.05 64.9 0.21 242.0
2023-08-31 22:30 3.67 7.69 264 6.09 64.9 0.25 242.0
2023-08-31 22:00 3.77 8.33 256 6.21 64.8 0.23 237.0
2023-08-31 21:30 3.94 8.70 251 6.24 64.8 0.29 259.0
2023-08-31 21:00 3.61 8.70 252 6.05 64.8 0.23 258.0
2023-08-31 20:30 3.84 8.70 251 5.98 64.6 0.17 283.0
2023-08-31 20:00 3.67 6.45 264 5.97 64.4 0.19 253.0
2023-08-31 19:30 3.64 9.09 245 5.97 64.4 0.25 258.0
2023-08-31 19:00 3.28 9.52 243 5.63 64.4 0.25 270.0
2023-08-31 18:30 3.31 8.70 251 5.83 64.2 0.27 283.0
2023-08-31 18:00 3.38 9.52 239 5.91 64.2 0.23 289.0
2023-08-31 17:30 3.18 9.09 243 5.98 64.2 0.23 301.0
2023-08-31 17:00 3.25 9.09 250 6.06 64.0 0.27 297.0